Grady, Alabama
Current Conditions -  °F | °C
As of 11:53 AM on Saturday 20 Dec 2014 (Local Time) from KTOI Reporting Station
Overcast Overcast  
Wind Chill: 10°   Ceiling: 700
Heat Index: 10°   Visibility: 10mi
Dew Point:   Wind: 5mph
Humidity: 89%   Direction: 80°E
Pressure: 30.15"   Gusts: NA
Location:  32°N, 86.2°W
Report Text: KTOI 201753Z AUTO 08004KT 10SM OVC007 10/08 A3015 RMK AO2 SLP210 60001 T01000083 10106 20078 58017
Loading
Personal Weather Stations






























Interactive Weather Map New forecast layout! Learn more

10-Day Weather Forecast

Advertisements
Track Severe Weather on mobile